Time;durP1;ratioP1;P1;durP2;ratioP2;P2;SDS_P1;SDS_P2;PMS_P1;PMS_P2;Temp;Humidity;BMP_temperature;BMP_pressure;BME280_temperature;BME280_humidity;BME280_pressure;Samples;Min_cycle;Max_cycle;Signal;HPM_P1;HPM_P2
2022/06/01 00:02:22;;;;;;;13.77;8.98;;;;;;;;;;7338326;19;161885;-17
2022/06/01 00:04:58;;;;;;;11.88;8.68;;;;;;;;;;7335134;19;162429;-17
2022/06/01 00:07:29;;;;;;;11.75;8.57;;;;;;;;;;7335498;19;154156;-16
2022/06/01 00:10:01;;;;;;;10.10;6.80;;;;;;;;;;7334081;19;153575;-17
2022/06/01 00:12:34;;;;;;;6.68;3.85;;;;;;;;;;7334973;19;161760;-16
2022/06/01 00:15:09;;;;;;;17.95;4.10;;;;;;;;;;7334699;19;162800;-17
2022/06/01 00:17:43;;;;;;;5.45;3.28;;;;;;;;;;7334015;19;154056;-17
2022/06/01 00:20:17;;;;;;;5.55;3.65;;;;;;;;;;7333729;19;153539;-16
2022/06/01 00:22:48;;;;;;;5.38;3.53;;;;;;;;;;7333432;19;161843;-17
2022/06/01 00:25:20;;;;;;;8.05;3.80;;;;;;;;;;7334537;19;162404;-17
2022/06/01 00:27:51;;;;;;;5.90;4.10;;;;;;;;;;7333789;19;154277;-16
2022/06/01 00:30:24;;;;;;;7.43;4.82;;;;;;;;;;7335080;19;153528;-16
2022/06/01 00:32:55;;;;;;;8.10;4.82;;;;;;;;;;7334559;19;161760;-16
2022/06/01 00:35:29;;;;;;;6.18;4.68;;;;;;;;;;7334353;19;162442;-16
2022/06/01 00:38:01;;;;;;;7.72;4.65;;;;;;;;;;7334970;19;154313;-16
2022/06/01 00:40:33;;;;;;;8.80;4.55;;;;;;;;;;7334474;19;155617;-17
2022/06/01 00:43:20;;;;;;;5.32;4.13;;;;;;;;;;7332678;19;161995;-17
2022/06/01 00:45:51;;;;;;;7.47;4.70;;;;;;;;;;7334038;19;162508;-17
2022/06/01 00:48:27;;;;;;;5.43;3.97;;;;;;;;;;7334419;19;154200;-16
2022/06/01 00:51:01;;;;;;;7.10;4.53;;;;;;;;;;7333925;19;153511;-17
2022/06/01 00:53:37;;;;;;;7.47;5.05;;;;;;;;;;7333743;19;161917;-16
2022/06/01 00:56:10;;;;;;;6.47;4.18;;;;;;;;;;7333729;19;162373;-16
2022/06/01 00:58:44;;;;;;;4.68;4.03;;;;;;;;;;7334229;19;154711;-16
2022/06/01 01:01:17;;;;;;;7.88;4.25;;;;;;;;;;7334205;19;153651;-16
2022/06/01 01:03:52;;;;;;;5.57;4.32;;;;;;;;;;7331646;19;161840;-16
2022/06/01 01:06:28;;;;;;;5.88;4.22;;;;;;;;;;7333356;19;162403;-16
2022/06/01 01:09:00;;;;;;;6.82;4.28;;;;;;;;;;7333968;19;154131;-16
2022/06/01 01:11:33;;;;;;;;;;;;;;;;;;7334172;19;153546;-16
2022/06/01 01:14:07;;;;;;;7.63;4.75;;;;;;;;;;7332423;19;161993;-16
2022/06/01 01:16:39;;;;;;;5.35;3.60;;;;;;;;;;7335270;19;162282;-16
2022/06/01 01:19:20;;;;;;;7.75;4.13;;;;;;;;;;7332663;19;134049;-16
2022/06/01 01:22:04;;;;;;;5.80;4.57;;;;;;;;;;7333486;19;153565;-16
2022/06/01 01:24:40;;;;;;;4.68;3.63;;;;;;;;;;7330480;19;162010;-16
2022/06/01 01:27:14;;;;;;;4.47;3.38;;;;;;;;;;7332949;19;162472;-16
2022/06/01 01:29:47;;;;;;;4.85;3.78;;;;;;;;;;7333193;19;154387;-16
2022/06/01 01:32:18;;;;;;;5.22;3.95;;;;;;;;;;7333074;19;153542;-16
2022/06/01 01:34:52;;;;;;;6.72;4.55;;;;;;;;;;7332753;19;161854;-16
2022/06/01 01:37:28;;;;;;;5.18;4.07;;;;;;;;;;7332317;19;162739;-16
2022/06/01 01:40:00;;;;;;;5.47;3.85;;;;;;;;;;7333137;19;154031;-16
2022/06/01 01:42:35;;;;;;;5.72;4.13;;;;;;;;;;7331636;19;153546;-16
2022/06/01 01:45:16;;;;;;;6.07;3.67;;;;;;;;;;7332540;19;161842;-16
2022/06/01 01:47:47;;;;;;;4.93;3.42;;;;;;;;;;7332331;19;162420;-15
2022/06/01 01:50:18;;;;;;;7.13;4.05;;;;;;;;;;7332436;19;154226;-16
2022/06/01 01:52:50;;;;;;;4.80;3.97;;;;;;;;;;7333282;19;153577;-15
2022/06/01 01:55:33;;;;;;;5.00;3.60;;;;;;;;;;7332221;19;161805;-16
2022/06/01 01:58:17;;;;;;;5.57;4.13;;;;;;;;;;7332237;19;162401;-16
2022/06/01 02:00:51;;;;;;;3.97;3.30;;;;;;;;;;7332550;19;154300;-16
2022/06/01 02:03:33;;;;;;;6.40;4.35;;;;;;;;;;7331629;19;153600;-16
2022/06/01 02:06:09;;;;;;;4.63;3.40;;;;;;;;;;7331940;19;162005;-16
2022/06/01 02:08:46;;;;;;;6.03;3.80;;;;;;;;;;7331644;19;162500;-15
2022/06/01 02:14:23;;;;;;;6.90;4.00;;;;;;;;;;7330747;19;153526;-16
2022/06/01 02:17:02;;;;;;;4.50;4.10;;;;;;;;;;7330538;19;162156;-18
2022/06/01 02:19:38;;;;;;;4.40;3.80;;;;;;;;;;7331688;19;162328;-17
2022/06/01 02:22:10;;;;;;;5.32;3.65;;;;;;;;;;7330900;19;154180;-16
2022/06/01 02:24:43;;;;;;;4.40;3.90;;;;;;;;;;7329859;19;153724;-17
2022/06/01 02:27:15;;;;;;;4.90;3.90;;;;;;;;;;7331345;19;161861;-17
2022/06/01 02:29:53;;;;;;;5.05;3.50;;;;;;;;;;7331367;19;162611;-17
2022/06/01 02:32:28;;;;;;;5.80;3.80;;;;;;;;;;7331722;19;153955;-17
2022/06/01 02:35:02;;;;;;;5.80;3.60;;;;;;;;;;7331442;19;153545;-17
2022/06/01 02:37:39;;;;;;;5.72;3.60;;;;;;;;;;7331169;19;161826;-15
2022/06/01 02:40:16;;;;;;;4.32;3.50;;;;;;;;;;7330884;19;162309;-18
2022/06/01 02:42:50;;;;;;;4.13;3.35;;;;;;;;;;7331319;19;154073;-15
2022/06/01 02:45:26;;;;;;;5.80;3.60;;;;;;;;;;7328694;19;153438;-16
2022/06/01 02:48:02;;;;;;;4.10;3.47;;;;;;;;;;7330842;19;161853;-16
2022/06/01 02:50:35;;;;;;;4.10;3.50;;;;;;;;;;7329504;19;162512;-15
2022/06/01 02:53:07;;;;;;;4.65;3.40;;;;;;;;;;7328335;19;154063;-16
2022/06/01 02:55:39;;;;;;;5.05;4.15;;;;;;;;;;7331039;19;153646;-15
2022/06/01 02:58:11;;;;;;;5.40;3.08;;;;;;;;;;7330557;19;161925;-15
2022/06/01 03:00:45;;;;;;;5.13;3.22;;;;;;;;;;7330393;19;162480;-15
2022/06/01 03:03:18;;;;;;;3.97;3.53;;;;;;;;;;7330929;19;154001;-15
2022/06/01 03:05:51;;;;;;;3.78;3.20;;;;;;;;;;7327998;19;153499;-15
2022/06/01 03:08:23;;;;;;;8.15;3.55;;;;;;;;;;7329161;19;161837;-16
2022/06/01 03:10:54;;;;;;;3.85;2.97;;;;;;;;;;7330056;19;162365;-16
2022/06/01 03:13:26;;;;;;;5.93;3.80;;;;;;;;;;7331847;19;155564;-18
2022/06/01 03:16:00;;;;;;;3.97;2.97;;;;;;;;;;7330423;19;153881;-17
2022/06/01 03:18:31;;;;;;;3.20;2.90;;;;;;;;;;7330080;19;161999;-16
2022/06/01 03:21:03;;;;;;;5.15;3.47;;;;;;;;;;7329899;19;162753;-16
2022/06/01 03:23:34;;;;;;;3.83;2.78;;;;;;;;;;7329031;19;154070;-16
2022/06/01 03:26:05;;;;;;;4.80;3.60;;;;;;;;;;7323767;19;153688;-16
2022/06/01 03:28:37;;;;;;;4.72;3.00;;;;;;;;;;7329790;19;161903;-15
2022/06/01 03:31:11;;;;;;;3.97;3.08;;;;;;;;;;7329560;19;162416;-15
2022/06/01 03:33:42;;;;;;;4.15;3.13;;;;;;;;;;7329872;19;154182;-15
2022/06/01 03:36:14;;;;;;;4.57;3.33;;;;;;;;;;7329527;19;153692;-16
2022/06/01 03:38:48;;;;;;;4.18;3.35;;;;;;;;;;7329399;19;161814;-15
2022/06/01 03:41:19;;;;;;;4.80;3.45;;;;;;;;;;7329171;19;162666;-16
2022/06/01 03:46:37;;;;;;;4.30;3.00;;;;;;;;;;7329459;19;153573;-15
2022/06/01 03:49:08;;;;;;;3.15;2.90;;;;;;;;;;7329006;19;161890;-15
2022/06/01 03:51:40;;;;;;;4.03;3.00;;;;;;;;;;7327608;19;162526;-15
2022/06/01 03:54:11;;;;;;;4.03;2.63;;;;;;;;;;7329081;19;154046;-16
2022/06/01 03:56:42;;;;;;;3.03;2.65;;;;;;;;;;7331362;19;153558;-15
2022/06/01 03:59:13;;;;;;;3.20;2.90;;;;;;;;;;7328842;19;162010;-15
2022/06/01 04:01:47;;;;;;;3.10;2.72;;;;;;;;;;7328821;19;162778;-16
2022/06/01 04:04:18;;;;;;;3.42;2.97;;;;;;;;;;7328878;19;154151;-16
2022/06/01 04:06:49;;;;;;;2.92;2.63;;;;;;;;;;7328977;19;153553;-18
2022/06/01 04:09:21;;;;;;;3.17;2.90;;;;;;;;;;7328824;19;162024;-15
2022/06/01 04:11:52;;;;;;;4.28;3.15;;;;;;;;;;7328513;19;162514;-17
2022/06/01 04:14:23;;;;;;;4.32;3.17;;;;;;;;;;7328988;19;154487;-18
2022/06/01 04:16:57;;;;;;;3.90;2.95;;;;;;;;;;7328884;19;153543;-17
2022/06/01 04:19:28;;;;;;;3.47;2.78;;;;;;;;;;7328294;19;161964;-15
2022/06/01 04:21:59;;;;;;;3.05;2.75;;;;;;;;;;7328176;19;162444;-15
2022/06/01 04:24:33;;;;;;;2.88;2.53;;;;;;;;;;7328242;19;154193;-17
2022/06/01 04:27:05;;;;;;;2.97;2.67;;;;;;;;;;7328279;19;153502;-15
2022/06/01 04:29:36;;;;;;;3.75;3.10;;;;;;;;;;7326695;19;161991;-17
2022/06/01 04:32:14;;;;;;;4.40;2.88;;;;;;;;;;7327834;19;162602;-15
2022/06/01 04:34:46;;;;;;;4.50;2.85;;;;;;;;;;7326998;19;154092;-15
2022/06/01 04:37:17;;;;;;;3.50;2.90;;;;;;;;;;7326932;19;153578;-15
2022/06/01 04:39:49;;;;;;;2.90;2.53;;;;;;;;;;7334568;19;161826;-15
2022/06/01 04:42:20;;;;;;;4.28;2.90;;;;;;;;;;7334439;19;162425;-14
2022/06/01 04:44:51;;;;;;;4.60;2.60;;;;;;;;;;7334572;19;153984;-15
2022/06/01 04:47:25;;;;;;;3.13;2.83;;;;;;;;;;7334612;19;153601;-15
2022/06/01 04:49:56;;;;;;;3.13;2.80;;;;;;;;;;7334450;19;161902;-15
2022/06/01 04:52:28;;;;;;;3.00;2.45;;;;;;;;;;7332385;19;162275;-15
2022/06/01 04:55:01;;;;;;;2.38;2.17;;;;;;;;;;7334442;19;154102;-18
2022/06/01 04:57:32;;;;;;;3.63;2.67;;;;;;;;;;7334240;19;153819;-18
2022/06/01 05:00:04;;;;;;;4.15;3.20;;;;;;;;;;7334172;19;161793;-16
2022/06/01 05:02:38;;;;;;;3.92;2.72;;;;;;;;;;7333859;19;162641;-16
2022/06/01 05:05:10;;;;;;;3.25;2.50;;;;;;;;;;7333975;19;154021;-16
2022/06/01 05:07:41;;;;;;;;;;;;;;;;;;7334577;19;153600;-15
2022/06/01 05:10:12;;;;;;;3.08;2.70;;;;;;;;;;7333806;19;162047;-18
2022/06/01 05:12:44;;;;;;;2.85;2.45;;;;;;;;;;7333419;19;162504;-15
2022/06/01 05:15:15;;;;;;;3.20;2.78;;;;;;;;;;7334192;19;154033;-16
2022/06/01 05:17:49;;;;;;;2.88;2.47;;;;;;;;;;7336168;19;153818;-16
2022/06/01 05:20:20;;;;;;;3.13;2.60;;;;;;;;;;7333120;19;161640;-16
2022/06/01 05:22:51;;;;;;;2.90;2.53;;;;;;;;;;7333310;19;162721;-17
2022/06/01 05:25:23;;;;;;;3.53;2.63;;;;;;;;;;7333432;19;154048;-17
2022/06/01 05:27:54;;;;;;;3.43;2.60;;;;;;;;;;7333704;19;153789;-17
2022/06/01 05:30:26;;;;;;;3.90;2.03;;;;;;;;;;7334878;19;161684;-17
2022/06/01 05:33:00;;;;;;;4.15;2.60;;;;;;;;;;7332804;19;162331;-17
2022/06/01 05:35:31;;;;;;;2.80;2.17;;;;;;;;;;7333159;19;154812;-17
2022/06/01 05:38:02;;;;;;;2.55;1.98;;;;;;;;;;7333037;19;153583;-17
2022/06/01 05:40:34;;;;;;;2.13;1.95;;;;;;;;;;7332308;19;161795;-16
2022/06/01 05:43:11;;;;;;;2.53;2.13;;;;;;;;;;7332469;19;162643;-17
2022/06/01 05:45:43;;;;;;;4.30;2.25;;;;;;;;;;7332587;19;153978;-17
2022/06/01 05:48:20;;;;;;;3.77;2.17;;;;;;;;;;7332761;19;153671;-17
2022/06/01 05:50:51;;;;;;;4.35;2.25;;;;;;;;;;7334092;19;163136;-17
2022/06/01 05:53:23;;;;;;;4.18;2.35;;;;;;;;;;7334963;19;162463;-17
2022/06/01 05:55:54;;;;;;;6.57;2.28;;;;;;;;;;7332730;19;154640;-17
2022/06/01 05:58:28;;;;;;;2.63;2.00;;;;;;;;;;7331610;19;153623;-17
2022/06/01 06:01:04;;;;;;;4.95;2.20;;;;;;;;;;7329530;19;162842;-17
2022/06/01 06:03:38;;;;;;;5.72;2.50;;;;;;;;;;7331035;19;162551;-17
2022/06/01 06:06:15;;;;;;;2.97;2.10;;;;;;;;;;7331834;19;154030;-16
2022/06/01 06:08:50;;;;;;;2.70;2.03;;;;;;;;;;7332359;19;153445;-17
2022/06/01 06:11:26;;;;;;;3.10;1.85;;;;;;;;;;7330800;19;161943;-17
2022/06/01 06:13:59;;;;;;;4.15;2.28;;;;;;;;;;7331470;19;162625;-17
2022/06/01 06:16:32;;;;;;;2.80;2.28;;;;;;;;;;7331548;19;154143;-17
2022/06/01 06:19:07;;;;;;;2.70;2.17;;;;;;;;;;7331677;19;153521;-17
2022/06/01 06:21:38;;;;;;;3.08;1.90;;;;;;;;;;7331628;19;162031;-17
2022/06/01 06:24:12;;;;;;;3.33;2.00;;;;;;;;;;7330861;19;162572;-17
2022/06/01 06:26:45;;;;;;;3.53;1.90;;;;;;;;;;7330255;19;154032;-17
2022/06/01 06:29:19;;;;;;;3.35;1.98;;;;;;;;;;7331684;19;153494;-17
2022/06/01 06:31:50;;;;;;;4.03;2.35;;;;;;;;;;7330990;19;162133;-16
2022/06/01 06:34:24;;;;;;;3.20;2.53;;;;;;;;;;7331085;19;162631;-17
2022/06/01 06:36:57;;;;;;;2.38;1.80;;;;;;;;;;7330601;19;154064;-17
2022/06/01 06:39:28;;;;;;;2.72;2.30;;;;;;;;;;7333337;19;153571;-17
2022/06/01 06:41:59;;;;;;;4.97;2.42;;;;;;;;;;7332408;19;162035;-16
2022/06/01 06:44:33;;;;;;;6.43;2.45;;;;;;;;;;7333986;19;162414;-17
2022/06/01 06:47:04;;;;;;;5.10;2.22;;;;;;;;;;7333246;19;154220;-17
2022/06/01 06:49:39;;;;;;;7.57;2.30;;;;;;;;;;7332295;19;153571;-17
2022/06/01 06:52:10;;;;;;;2.75;2.20;;;;;;;;;;7333691;19;161823;-17
2022/06/01 06:54:42;;;;;;;5.10;2.20;;;;;;;;;;7330651;19;162980;-17
2022/06/01 06:57:13;;;;;;;4.68;2.88;;;;;;;;;;7330699;19;154051;-17
2022/06/01 06:59:45;;;;;;;3.60;2.53;;;;;;;;;;7326468;19;153600;-17
2022/06/01 07:02:16;;;;;;;5.72;2.65;;;;;;;;;;7327468;19;161737;-16
2022/06/01 07:04:50;;;;;;;7.00;2.25;;;;;;;;;;7329973;19;162411;-17
2022/06/01 07:07:21;;;;;;;4.95;2.50;;;;;;;;;;7329434;19;154040;-17
2022/06/01 07:09:52;;;;;;;3.75;2.30;;;;;;;;;;7330592;19;153614;-17
2022/06/01 07:12:24;;;;;;;4.13;2.15;;;;;;;;;;7329923;19;162118;-17
2022/06/01 07:14:55;;;;;;;7.47;2.55;;;;;;;;;;7328828;19;162436;-17
2022/06/01 07:17:26;;;;;;;4.53;2.35;;;;;;;;;;7330422;19;154337;-17
2022/06/01 07:20:00;;;;;;;4.55;2.28;;;;;;;;;;7330298;19;153531;-17
2022/06/01 07:22:31;;;;;;;5.05;2.55;;;;;;;;;;7329857;19;161837;-17
2022/06/01 07:25:02;;;;;;;4.45;2.30;;;;;;;;;;7330890;19;162998;-17
2022/06/01 07:27:34;;;;;;;3.78;2.53;;;;;;;;;;7328733;19;154172;-17
2022/06/01 07:30:05;;;;;;;5.82;2.15;;;;;;;;;;7329894;19;153621;-17
2022/06/01 07:32:37;;;;;;;2.30;1.92;;;;;;;;;;7329465;19;162034;-17
2022/06/01 07:35:11;;;;;;;4.65;2.30;;;;;;;;;;7329401;19;162568;-17
2022/06/01 07:43:11;;;;;;;3.50;2.35;;;;;;;;;;7328874;19;161934;-17
2022/06/01 07:45:44;;;;;;;3.85;2.17;;;;;;;;;;7329079;19;162361;-17
2022/06/01 07:48:16;;;;;;;3.30;2.08;;;;;;;;;;7327434;19;154168;-17
2022/06/01 07:51:10;;;;;;;7.93;2.30;;;;;;;;;;7328509;19;153606;-17
2022/06/01 07:53:42;;;;;;;3.67;2.13;;;;;;;;;;7330621;19;161826;-17
2022/06/01 07:56:13;;;;;;;4.95;2.05;;;;;;;;;;7329019;19;162451;-17
2022/06/01 07:58:44;;;;;;;4.30;2.20;;;;;;;;;;7329051;19;154146;-17
2022/06/01 08:01:15;;;;;;;3.50;2.22;;;;;;;;;;7328802;19;153519;-17
2022/06/01 08:03:47;;;;;;;4.65;2.53;;;;;;;;;;7328306;19;161826;-17
2022/06/01 08:06:21;;;;;;;2.92;1.73;;;;;;;;;;7328450;19;162640;-17
2022/06/01 08:09:08;;;;;;;2.65;2.20;;;;;;;;;;7326189;19;154025;-17
2022/06/01 08:14:23;;;;;;;3.75;2.03;;;;;;;;;;7334458;19;162364;-17
2022/06/01 08:16:55;;;;;;;5.15;2.00;;;;;;;;;;7335136;19;162611;-17
2022/06/01 08:19:26;;;;;;;4.47;2.03;;;;;;;;;;7334963;19;154026;-17
2022/06/01 08:22:00;;;;;;;3.95;2.58;;;;;;;;;;7334160;19;153704;-17
2022/06/01 08:24:32;;;;;;;2.67;2.00;;;;;;;;;;7333696;19;161551;-17
2022/06/01 08:27:03;;;;;;;3.47;2.10;;;;;;;;;;7334776;19;162511;-17
2022/06/01 08:29:35;;;;;;;4.70;2.33;;;;;;;;;;7332758;19;154022;-16
2022/06/01 08:32:07;;;;;;;3.17;2.10;;;;;;;;;;7334832;19;153518;-16
2022/06/01 08:34:39;;;;;;;2.30;1.65;;;;;;;;;;7334579;19;162162;-16
2022/06/01 08:37:12;;;;;;;3.15;2.08;;;;;;;;;;7334506;19;162525;-17
2022/06/01 08:39:44;;;;;;;3.03;2.00;;;;;;;;;;7334644;19;154027;-17
2022/06/01 08:42:18;;;;;;;2.38;2.03;;;;;;;;;;7334414;19;153602;-16
2022/06/01 08:44:54;;;;;;;3.10;2.10;;;;;;;;;;7332934;19;162135;-16
2022/06/01 08:47:30;;;;;;;3.28;2.03;;;;;;;;;;7334157;19;162327;-16
2022/06/01 08:50:03;;;;;;;2.70;1.70;;;;;;;;;;7334344;19;154037;-16
2022/06/01 08:52:37;;;;;;;2.33;1.90;;;;;;;;;;7332425;19;153611;-16
2022/06/01 08:55:09;;;;;;;3.25;1.80;;;;;;;;;;7333448;19;161869;-16
2022/06/01 08:57:49;;;;;;;1.77;1.65;;;;;;;;;;7333731;19;162535;-16
2022/06/01 09:00:24;;;;;;;6.10;1.73;;;;;;;;;;7334163;19;153840;-17
2022/06/01 09:03:07;;;;;;;2.38;1.80;;;;;;;;;;7334117;19;153417;-17
2022/06/01 09:05:46;;;;;;;2.93;1.70;;;;;;;;;;7333699;19;161755;-17
2022/06/01 09:08:29;;;;;;;3.33;1.45;;;;;;;;;;7331707;19;162420;-16
2022/06/01 09:11:08;;;;;;;3.75;2.15;;;;;;;;;;7333787;19;154002;-15
2022/06/01 09:13:53;;;;;;;1.98;1.83;;;;;;;;;;7333769;19;153797;-15
2022/06/01 09:16:28;;;;;;;2.70;1.85;;;;;;;;;;7333476;19;161894;-17
2022/06/01 09:19:00;;;;;;;2.65;1.95;;;;;;;;;;7333378;19;162358;-15
2022/06/01 09:24:22;;;;;;;1.88;1.77;;;;;;;;;;7330529;19;153525;-17
2022/06/01 09:27:00;;;;;;;1.95;1.73;;;;;;;;;;7336620;19;161900;-15
2022/06/01 09:29:34;;;;;;;4.25;2.05;;;;;;;;;;7331095;19;162328;-16
2022/06/01 09:32:08;;;;;;;2.28;1.85;;;;;;;;;;7333035;19;154081;-18
2022/06/01 09:34:43;;;;;;;2.22;1.90;;;;;;;;;;7333254;19;153633;-16
2022/06/01 09:37:20;;;;;;;2.50;1.88;;;;;;;;;;7332807;19;162619;-17
2022/06/01 09:39:57;;;;;;;1.80;1.70;;;;;;;;;;7332613;19;162590;-17
2022/06/01 09:42:35;;;;;;;3.22;1.80;;;;;;;;;;7333174;19;153956;-19
2022/06/01 09:45:16;;;;;;;3.47;2.00;;;;;;;;;;7332776;19;153654;-16
2022/06/01 09:47:50;;;;;;;3.47;2.08;;;;;;;;;;7331301;19;161805;-18
2022/06/01 09:50:29;;;;;;;1.90;1.80;;;;;;;;;;7328736;19;162459;-15
2022/06/01 09:53:04;;;;;;;1.98;1.70;;;;;;;;;;7330108;19;153961;-16
2022/06/01 09:55:38;;;;;;;2.13;1.65;;;;;;;;;;7331430;19;154441;-16
2022/06/01 10:06:05;;;;;;;1.83;1.70;;;;;;;;;;7331907;19;161876;-17
2022/06/01 10:06:36;;;;;;;1.77;1.67;;;;;;;;;;7331906;19;153521;-16
2022/06/01 10:09:13;;;;;;;2.50;1.70;;;;;;;;;;7330745;19;162108;-17
2022/06/01 10:11:51;;;;;;;2.53;2.00;;;;;;;;;;7331630;19;162655;-16
2022/06/01 10:14:25;;;;;;;2.65;1.50;;;;;;;;;;7332009;19;153997;-17
2022/06/01 10:17:16;;;;;;;1.70;1.60;;;;;;;;;;7331844;19;154023;-16
2022/06/01 10:19:56;;;;;;;2.10;1.92;;;;;;;;;;7331711;19;161995;-17
2022/06/01 10:22:35;;;;;;;2.78;2.00;;;;;;;;;;7331381;19;162288;-16
2022/06/01 10:25:12;;;;;;;1.80;1.67;;;;;;;;;;7331774;19;154232;-16
2022/06/01 10:27:56;;;;;;;1.95;1.77;;;;;;;;;;7331530;19;153758;-16
2022/06/01 10:30:30;;;;;;;2.22;1.98;;;;;;;;;;7328719;19;161949;-16
2022/06/01 10:33:08;;;;;;;2.03;1.52;;;;;;;;;;7330998;19;162395;-16
2022/06/01 10:35:43;;;;;;;2.50;1.80;;;;;;;;;;7330394;19;153960;-16
2022/06/01 10:38:23;;;;;;;1.60;1.42;;;;;;;;;;7331431;19;153658;-16
2022/06/01 10:41:02;;;;;;;1.80;1.70;;;;;;;;;;7330913;19;161774;-17
2022/06/01 10:43:54;;;;;;;2.45;1.92;;;;;;;;;;7330559;19;162242;-16
2022/06/01 10:46:47;;;;;;;1.80;1.70;;;;;;;;;;7331095;19;154220;-17
2022/06/01 10:49:39;;;;;;;1.67;1.58;;;;;;;;;;7330368;19;153498;-17
2022/06/01 10:52:23;;;;;;;1.45;1.35;;;;;;;;;;7328994;19;162114;-16
2022/06/01 10:55:09;;;;;;;2.00;1.75;;;;;;;;;;7330620;19;162639;-17
2022/06/01 10:57:42;;;;;;;3.38;1.95;;;;;;;;;;7330739;19;154204;-16
2022/06/01 11:00:19;;;;;;;1.88;1.77;;;;;;;;;;7330873;19;153533;-16
2022/06/01 11:03:16;;;;;;;1.70;1.60;;;;;;;;;;7330532;19;162001;-17
2022/06/01 11:06:00;;;;;;;1.92;1.77;;;;;;;;;;7330362;19;162750;-17
2022/06/01 11:08:43;;;;;;;1.90;1.80;;;;;;;;;;7330728;19;154052;-17
2022/06/01 11:11:21;;;;;;;2.88;1.70;;;;;;;;;;7327963;19;153404;-16
2022/06/01 11:14:09;;;;;;;1.88;1.65;;;;;;;;;;7329927;19;161972;-16
2022/06/01 11:16:56;;;;;;;2.20;1.80;;;;;;;;;;7329749;19;162547;-16
2022/06/01 11:19:51;;;;;;;2.22;1.80;;;;;;;;;;7330219;19;154053;-16
2022/06/01 11:22:37;;;;;;;2.72;1.85;;;;;;;;;;7330211;19;153650;-17
2022/06/01 11:25:16;;;;;;;1.92;1.83;;;;;;;;;;7329407;19;162001;-17
2022/06/01 11:28:17;;;;;;;1.63;1.48;;;;;;;;;;7328029;19;162726;-17
2022/06/01 11:30:56;;;;;;;2.10;1.90;;;;;;;;;;7326690;19;154018;-16
2022/06/01 11:33:37;;;;;;;3.20;1.77;;;;;;;;;;7329556;19;153626;-17
2022/06/01 11:36:30;;;;;;;2.03;1.67;;;;;;;;;;7333360;19;162029;-16
2022/06/01 11:39:11;;;;;;;2.83;1.83;;;;;;;;;;7329042;19;162525;-17
2022/06/01 11:41:52;;;;;;;2.00;1.77;;;;;;;;;;7329668;19;154175;-17
2022/06/01 11:44:36;;;;;;;1.60;1.42;;;;;;;;;;7328366;19;153488;-16
2022/06/01 11:47:11;;;;;;;2.42;2.13;;;;;;;;;;7326639;19;161907;-17
2022/06/01 11:50:01;;;;;;;2.17;1.40;;;;;;;;;;7328592;19;162352;-17
2022/06/01 11:52:37;;;;;;;1.98;1.80;;;;;;;;;;7327196;19;154003;-17
2022/06/01 11:55:27;;;;;;;1.63;1.40;;;;;;;;;;7331812;19;153627;-18
2022/06/01 11:58:08;;;;;;;1.95;1.70;;;;;;;;;;7328897;19;161807;-17
2022/06/01 12:00:44;;;;;;;1.70;1.60;;;;;;;;;;7328769;19;162331;-17
2022/06/01 12:03:56;;;;;;;1.83;1.70;;;;;;;;;;7329171;19;154289;-17
2022/06/01 12:07:05;;;;;;;2.63;2.03;;;;;;;;;;7327263;19;153554;-17
2022/06/01 12:09:47;;;;;;;1.40;1.30;;;;;;;;;;7326447;19;163641;-17
2022/06/01 12:12:29;;;;;;;2.30;2.08;;;;;;;;;;7328506;19;162647;-17
2022/06/01 12:15:04;;;;;;;1.77;1.67;;;;;;;;;;7328495;19;154083;-16
2022/06/01 12:17:38;;;;;;;1.70;1.60;;;;;;;;;;7328198;19;153526;-17
2022/06/01 12:20:49;;;;;;;1.50;1.40;;;;;;;;;;7327914;19;162103;-17
2022/06/01 12:29:42;;;;;;;1.90;1.80;;;;;;;;;;7326675;19;153609;-17
2022/06/01 12:32:16;;;;;;;2.03;1.40;;;;;;;;;;7324775;19;161782;-17
2022/06/01 12:35:09;;;;;;;3.13;1.60;;;;;;;;;;7326113;19;162937;-19
2022/06/01 12:37:47;;;;;;;3.17;1.92;;;;;;;;;;7326437;19;154085;-16
2022/06/01 12:40:23;;;;;;;5.30;2.72;;;;;;;;;;7330781;19;153594;-16
2022/06/01 12:42:56;;;;;;;9.38;3.38;;;;;;;;;;7326596;19;161821;-17
2022/06/01 12:45:38;;;;;;;3.55;2.17;;;;;;;;;;7325726;19;162538;-17
2022/06/01 12:48:12;;;;;;;5.82;2.25;;;;;;;;;;7326935;19;154339;-16
2022/06/01 12:50:53;;;;;;;10.57;2.50;;;;;;;;;;7326029;19;153523;-17
2022/06/01 12:53:26;;;;;;;7.60;2.35;;;;;;;;;;7326596;19;161694;-16
2022/06/01 12:56:15;;;;;;;3.90;2.13;;;;;;;;;;7326404;19;162518;-17
2022/06/01 12:58:48;;;;;;;6.97;2.20;;;;;;;;;;7328402;19;153978;-17
2022/06/01 13:01:27;;;;;;;6.50;2.30;;;;;;;;;;7334271;19;153525;-17
2022/06/01 13:04:00;;;;;;;5.63;2.05;;;;;;;;;;7333552;19;162167;-18
2022/06/01 13:06:34;;;;;;;4.65;2.00;;;;;;;;;;7333447;19;162522;-17
2022/06/01 13:09:10;;;;;;;5.93;2.47;;;;;;;;;;7333797;19;154252;-16
2022/06/01 13:11:45;;;;;;;6.47;2.35;;;;;;;;;;7332543;19;153469;-18
2022/06/01 13:14:25;;;;;;;3.53;1.98;;;;;;;;;;7331986;19;161830;-18
2022/06/01 13:17:02;;;;;;;5.30;1.80;;;;;;;;;;7331855;19;162384;-17
2022/06/01 13:19:34;;;;;;;7.43;1.90;;;;;;;;;;7332905;19;154097;-17
2022/06/01 13:22:11;;;;;;;4.72;2.22;;;;;;;;;;7333289;19;153971;-16
2022/06/01 13:24:47;;;;;;;5.60;2.10;;;;;;;;;;7332728;19;161822;-16
2022/06/01 13:27:23;;;;;;;4.82;2.15;;;;;;;;;;7332914;19;162485;-17
2022/06/01 13:29:59;;;;;;;5.65;2.40;;;;;;;;;;7331928;19;154029;-18
2022/06/01 13:32:34;;;;;;;3.97;2.17;;;;;;;;;;7331261;19;153783;-18
2022/06/01 13:35:20;;;;;;;33.80;21.08;;;;;;;;;;7332895;19;161976;-17
2022/06/01 13:37:54;;;;;;;39.58;25.05;;;;;;;;;;7332853;19;162387;-18
2022/06/01 13:40:29;;;;;;;32.10;18.35;;;;;;;;;;7333033;19;154046;-17
2022/06/01 13:43:09;;;;;;;18.63;11.85;;;;;;;;;;7332024;19;153548;-17
2022/06/01 13:45:51;;;;;;;26.95;15.32;;;;;;;;;;7336583;19;161783;-17
2022/06/01 13:48:33;;;;;;;24.55;15.25;;;;;;;;;;7332508;19;162391;-18
2022/06/01 13:51:11;;;;;;;22.30;15.13;;;;;;;;;;7332401;19;153915;-17
2022/06/01 13:53:46;;;;;;;24.35;14.18;;;;;;;;;;7332900;19;153461;-17
2022/06/01 13:56:32;;;;;;;25.90;14.27;;;;;;;;;;7332257;19;162480;-17
2022/06/01 13:59:12;;;;;;;24.27;13.55;;;;;;;;;;7336289;19;162389;-17
2022/06/01 14:01:47;;;;;;;25.05;13.35;;;;;;;;;;7332784;19;154088;-17
2022/06/01 14:04:25;;;;;;;23.80;13.10;;;;;;;;;;7332755;19;153603;-17
2022/06/01 14:07:03;;;;;;;20.40;12.93;;;;;;;;;;7332202;19;161819;-17
2022/06/01 14:09:37;;;;;;;20.98;13.05;;;;;;;;;;7331729;19;162600;-17
2022/06/01 14:12:09;;;;;;;19.92;13.45;;;;;;;;;;7329880;19;154399;-17
2022/06/01 14:14:46;;;;;;;21.60;12.32;;;;;;;;;;7332323;19;153590;-17
2022/06/01 14:17:20;;;;;;;21.25;12.00;;;;;;;;;;7331811;19;161808;-17
2022/06/01 14:19:51;;;;;;;21.05;11.27;;;;;;;;;;7330569;19;162350;-17
2022/06/01 14:22:22;;;;;;;20.13;11.75;;;;;;;;;;7332228;19;154072;-17
2022/06/01 14:30:23;;;;;;;25.63;11.05;;;;;;;;;;7331368;19;162527;-17
2022/06/01 14:32:56;;;;;;;23.27;11.13;;;;;;;;;;7329758;19;154033;-17
2022/06/01 14:35:29;;;;;;;17.33;10.48;;;;;;;;;;7331622;19;153733;-17
2022/06/01 14:38:03;;;;;;;15.63;9.10;;;;;;;;;;7330841;19;161828;-16
2022/06/01 14:40:34;;;;;;;16.60;10.35;;;;;;;;;;7330891;19;162495;-17
2022/06/01 14:43:09;;;;;;;17.60;9.13;;;;;;;;;;7331306;19;153938;-17
2022/06/01 14:45:43;;;;;;;23.50;9.73;;;;;;;;;;7331493;19;153318;-17
2022/06/01 14:48:14;;;;;;;16.50;9.15;;;;;;;;;;7330954;19;161895;-17
2022/06/01 14:50:46;;;;;;;17.90;9.55;;;;;;;;;;7330459;19;162387;-17
2022/06/01 14:53:25;;;;;;;20.13;9.65;;;;;;;;;;7328047;19;154057;-17
2022/06/01 14:55:57;;;;;;;18.48;9.15;;;;;;;;;;7330870;19;154024;-17
2022/06/01 14:58:28;;;;;;;17.83;8.73;;;;;;;;;;7328933;19;161824;-16
2022/06/01 15:01:08;;;;;;;14.05;8.35;;;;;;;;;;7330109;19;162534;-17
2022/06/01 15:03:42;;;;;;;18.20;8.90;;;;;;;;;;7329212;19;154194;-18
2022/06/01 15:06:13;;;;;;;13.40;8.00;;;;;;;;;;7330524;19;153523;-16
2022/06/01 15:08:44;;;;;;;14.63;7.80;;;;;;;;;;7330292;19;161806;-17
2022/06/01 15:11:16;;;;;;;13.30;6.70;;;;;;;;;;7330120;19;162262;-16
2022/06/01 15:13:48;;;;;;;13.07;6.57;;;;;;;;;;7328194;19;153804;-17
2022/06/01 15:16:24;;;;;;;17.52;7.25;;;;;;;;;;7330033;19;153734;-17
2022/06/01 15:18:58;;;;;;;13.70;8.00;;;;;;;;;;7330129;19;162076;-17
2022/06/01 15:21:30;;;;;;;18.23;7.35;;;;;;;;;;7329587;19;162333;-16
2022/06/01 15:24:02;;;;;;;14.30;7.20;;;;;;;;;;7329972;19;154154;-17
2022/06/01 15:26:33;;;;;;;16.57;7.23;;;;;;;;;;7330106;19;153645;-16
2022/06/01 15:30:57;;;;;;;13.27;6.95;;;;;;;;;;7329749;19;161882;-15
2022/06/01 15:40:12;;;;;;;14.68;6.75;;;;;;;;;;7329383;19;161956;-16
2022/06/01 15:42:47;;;;;;;;;;;;;;;;;;7329743;19;162579;-16
2022/06/01 15:45:19;;;;;;;15.50;6.53;;;;;;;;;;7329453;19;154317;-15
2022/06/01 15:47:55;;;;;;;;;;;;;;;;;;7329710;19;153879;-16
2022/06/01 15:50:28;;;;;;;13.88;6.85;;;;;;;;;;7331800;19;161972;-17
2022/06/01 15:52:59;;;;;;;17.38;6.57;;;;;;;;;;7326300;19;162713;-17
2022/06/01 15:55:31;;;;;;;16.77;6.30;;;;;;;;;;7329167;19;154240;-17
2022/06/01 15:58:02;;;;;;;14.00;5.93;;;;;;;;;;7327899;19;153957;-17
2022/06/01 16:00:34;;;;;;;15.95;6.43;;;;;;;;;;7328009;19;161844;-18